sensor_id;sensor_type;location;lat;lon;timestamp;P1;durP1;ratioP1;P2;durP2;ratioP2
22774;SDS011;11554;51.106;3.684;2022-08-19T00:00:00;33.70;;;27.00;;
22774;SDS011;11554;51.106;3.684;2022-08-19T00:05:00;31.10;;;24.40;;
22774;SDS011;11554;51.106;3.684;2022-08-19T00:10:00;31.10;;;24.40;;
22774;SDS011;11554;51.106;3.684;2022-08-19T00:15:00;28.40;;;23.70;;
22774;SDS011;11554;51.106;3.684;2022-08-19T00:20:00;28.40;;;23.70;;
22774;SDS011;11554;51.106;3.684;2022-08-19T00:25:00;28.40;;;22.50;;
22774;SDS011;11554;51.106;3.684;2022-08-19T00:30:00;28.40;;;22.50;;
22774;SDS011;11554;51.106;3.684;2022-08-19T00:35:00;30.80;;;22.50;;
22774;SDS011;11554;51.106;3.684;2022-08-19T00:40:02;30.80;;;22.50;;
22774;SDS011;11554;51.106;3.684;2022-08-19T00:45:00;28.60;;;21.90;;
22774;SDS011;11554;51.106;3.684;2022-08-19T00:50:00;28.60;;;21.90;;
22774;SDS011;11554;51.106;3.684;2022-08-19T00:55:01;28.10;;;22.20;;
22774;SDS011;11554;51.106;3.684;2022-08-19T01:00:00;28.10;;;22.20;;
22774;SDS011;11554;51.106;3.684;2022-08-19T01:05:03;29.40;;;22.80;;
22774;SDS011;11554;51.106;3.684;2022-08-19T01:10:01;29.40;;;22.80;;
22774;SDS011;11554;51.106;3.684;2022-08-19T01:15:00;31.90;;;24.00;;
22774;SDS011;11554;51.106;3.684;2022-08-19T01:20:00;31.90;;;24.00;;
22774;SDS011;11554;51.106;3.684;2022-08-19T01:25:00;33.50;;;25.10;;
22774;SDS011;11554;51.106;3.684;2022-08-19T01:30:00;33.50;;;25.10;;
22774;SDS011;11554;51.106;3.684;2022-08-19T01:35:00;32.90;;;24.70;;
22774;SDS011;11554;51.106;3.684;2022-08-19T01:40:00;32.90;;;24.70;;
22774;SDS011;11554;51.106;3.684;2022-08-19T01:45:00;32.10;;;23.40;;
22774;SDS011;11554;51.106;3.684;2022-08-19T01:50:00;32.10;;;23.40;;
22774;SDS011;11554;51.106;3.684;2022-08-19T01:55:00;32.20;;;23.00;;
22774;SDS011;11554;51.106;3.684;2022-08-19T02:00:00;32.20;;;23.00;;
22774;SDS011;11554;51.106;3.684;2022-08-19T02:05:00;32.20;;;24.20;;
22774;SDS011;11554;51.106;3.684;2022-08-19T02:10:01;32.20;;;24.20;;
22774;SDS011;11554;51.106;3.684;2022-08-19T02:15:00;32.00;;;22.60;;
22774;SDS011;11554;51.106;3.684;2022-08-19T02:20:00;32.00;;;22.60;;
22774;SDS011;11554;51.106;3.684;2022-08-19T02:25:00;32.00;;;21.80;;
22774;SDS011;11554;51.106;3.684;2022-08-19T02:30:00;32.00;;;21.80;;
22774;SDS011;11554;51.106;3.684;2022-08-19T02:35:00;31.30;;;20.60;;
22774;SDS011;11554;51.106;3.684;2022-08-19T02:40:00;31.30;;;20.60;;
22774;SDS011;11554;51.106;3.684;2022-08-19T02:45:00;30.30;;;19.50;;
22774;SDS011;11554;51.106;3.684;2022-08-19T02:50:01;30.30;;;19.50;;
22774;SDS011;11554;51.106;3.684;2022-08-19T02:55:00;28.50;;;17.70;;
22774;SDS011;11554;51.106;3.684;2022-08-19T03:00:00;28.50;;;17.70;;
22774;SDS011;11554;51.106;3.684;2022-08-19T03:05:02;25.50;;;17.20;;
22774;SDS011;11554;51.106;3.684;2022-08-19T03:10:00;25.50;;;17.20;;
22774;SDS011;11554;51.106;3.684;2022-08-19T03:15:00;24.10;;;16.80;;
22774;SDS011;11554;51.106;3.684;2022-08-19T03:20:01;24.10;;;16.80;;
22774;SDS011;11554;51.106;3.684;2022-08-19T03:25:00;23.30;;;15.40;;
22774;SDS011;11554;51.106;3.684;2022-08-19T03:30:00;23.30;;;15.40;;
22774;SDS011;11554;51.106;3.684;2022-08-19T03:35:00;26.60;;;16.30;;
22774;SDS011;11554;51.106;3.684;2022-08-19T03:40:00;26.60;;;16.30;;
22774;SDS011;11554;51.106;3.684;2022-08-19T03:45:00;24.20;;;15.30;;
22774;SDS011;11554;51.106;3.684;2022-08-19T03:50:00;24.20;;;15.30;;
22774;SDS011;11554;51.106;3.684;2022-08-19T03:55:00;21.90;;;15.50;;
22774;SDS011;11554;51.106;3.684;2022-08-19T04:00:00;21.90;;;15.50;;
22774;SDS011;11554;51.106;3.684;2022-08-19T04:05:00;25.30;;;15.90;;
22774;SDS011;11554;51.106;3.684;2022-08-19T04:10:00;25.30;;;15.90;;
22774;SDS011;11554;51.106;3.684;2022-08-19T04:15:00;25.80;;;15.90;;
22774;SDS011;11554;51.106;3.684;2022-08-19T04:20:00;25.80;;;15.90;;
22774;SDS011;11554;51.106;3.684;2022-08-19T04:25:00;23.50;;;15.30;;
22774;SDS011;11554;51.106;3.684;2022-08-19T04:30:00;23.50;;;15.30;;
22774;SDS011;11554;51.106;3.684;2022-08-19T04:35:00;22.50;;;13.80;;
22774;SDS011;11554;51.106;3.684;2022-08-19T04:40:00;22.50;;;13.80;;
22774;SDS011;11554;51.106;3.684;2022-08-19T04:45:00;23.90;;;14.20;;
22774;SDS011;11554;51.106;3.684;2022-08-19T04:50:00;23.90;;;14.20;;
22774;SDS011;11554;51.106;3.684;2022-08-19T04:55:00;23.80;;;14.20;;
22774;SDS011;11554;51.106;3.684;2022-08-19T05:00:00;23.80;;;14.20;;
22774;SDS011;11554;51.106;3.684;2022-08-19T05:05:00;23.20;;;13.90;;
22774;SDS011;11554;51.106;3.684;2022-08-19T05:10:00;23.20;;;13.90;;
22774;SDS011;11554;51.106;3.684;2022-08-19T05:15:02;22.60;;;13.20;;
22774;SDS011;11554;51.106;3.684;2022-08-19T05:20:00;22.60;;;13.20;;
22774;SDS011;11554;51.106;3.684;2022-08-19T05:25:01;21.20;;;12.30;;
22774;SDS011;11554;51.106;3.684;2022-08-19T05:30:00;21.20;;;12.30;;
22774;SDS011;11554;51.106;3.684;2022-08-19T05:35:00;22.50;;;11.80;;
22774;SDS011;11554;51.106;3.684;2022-08-19T05:40:00;22.50;;;11.80;;
22774;SDS011;11554;51.106;3.684;2022-08-19T05:45:00;23.00;;;12.10;;
22774;SDS011;11554;51.106;3.684;2022-08-19T05:50:00;23.00;;;12.10;;
22774;SDS011;11554;51.106;3.684;2022-08-19T05:55:01;24.30;;;13.40;;
22774;SDS011;11554;51.106;3.684;2022-08-19T06:00:00;24.30;;;13.40;;
22774;SDS011;11554;51.106;3.684;2022-08-19T06:05:00;20.80;;;12.10;;
22774;SDS011;11554;51.106;3.684;2022-08-19T06:10:00;20.80;;;12.10;;
22774;SDS011;11554;51.106;3.684;2022-08-19T06:15:01;23.70;;;13.40;;
22774;SDS011;11554;51.106;3.684;2022-08-19T06:20:00;23.70;;;13.40;;
22774;SDS011;11554;51.106;3.684;2022-08-19T06:25:00;24.50;;;14.40;;
22774;SDS011;11554;51.106;3.684;2022-08-19T06:30:00;24.50;;;14.40;;
22774;SDS011;11554;51.106;3.684;2022-08-19T06:35:00;28.10;;;16.20;;
22774;SDS011;11554;51.106;3.684;2022-08-19T06:40:00;28.10;;;16.20;;
22774;SDS011;11554;51.106;3.684;2022-08-19T06:45:00;27.50;;;15.60;;
22774;SDS011;11554;51.106;3.684;2022-08-19T06:50:01;27.50;;;15.60;;
22774;SDS011;11554;51.106;3.684;2022-08-19T06:55:00;22.70;;;16.30;;
22774;SDS011;11554;51.106;3.684;2022-08-19T07:00:00;22.70;;;16.30;;
22774;SDS011;11554;51.106;3.684;2022-08-19T07:05:00;24.50;;;17.40;;
22774;SDS011;11554;51.106;3.684;2022-08-19T07:10:01;24.50;;;17.40;;
22774;SDS011;11554;51.106;3.684;2022-08-19T07:15:00;23.90;;;16.60;;
22774;SDS011;11554;51.106;3.684;2022-08-19T07:20:00;23.90;;;16.60;;
22774;SDS011;11554;51.106;3.684;2022-08-19T07:25:00;22.90;;;16.80;;
22774;SDS011;11554;51.106;3.684;2022-08-19T07:30:01;22.90;;;16.80;;
22774;SDS011;11554;51.106;3.684;2022-08-19T07:35:00;18.30;;;15.90;;
22774;SDS011;11554;51.106;3.684;2022-08-19T07:40:01;18.30;;;15.90;;
22774;SDS011;11554;51.106;3.684;2022-08-19T07:45:01;22.00;;;16.30;;
22774;SDS011;11554;51.106;3.684;2022-08-19T07:50:00;22.00;;;16.30;;
22774;SDS011;11554;51.106;3.684;2022-08-19T07:55:00;22.20;;;14.00;;
22774;SDS011;11554;51.106;3.684;2022-08-19T08:00:00;22.20;;;14.00;;
22774;SDS011;11554;51.106;3.684;2022-08-19T08:05:00;16.60;;;12.40;;
22774;SDS011;11554;51.106;3.684;2022-08-19T08:10:00;16.60;;;12.40;;
22774;SDS011;11554;51.106;3.684;2022-08-19T08:15:03;19.80;;;14.10;;
22774;SDS011;11554;51.106;3.684;2022-08-19T08:20:00;19.80;;;14.10;;
22774;SDS011;11554;51.106;3.684;2022-08-19T08:25:00;15.50;;;11.00;;
22774;SDS011;11554;51.106;3.684;2022-08-19T08:30:00;15.50;;;11.00;;
22774;SDS011;11554;51.106;3.684;2022-08-19T08:35:00;17.60;;;9.40;;
22774;SDS011;11554;51.106;3.684;2022-08-19T08:40:03;17.60;;;9.40;;
22774;SDS011;11554;51.106;3.684;2022-08-19T08:45:03;16.00;;;9.70;;
22774;SDS011;11554;51.106;3.684;2022-08-19T08:50:05;16.00;;;9.70;;
22774;SDS011;11554;51.106;3.684;2022-08-19T08:55:06;13.20;;;9.40;;
22774;SDS011;11554;51.106;3.684;2022-08-19T09:00:04;13.20;;;9.40;;
22774;SDS011;11554;51.106;3.684;2022-08-19T09:05:00;14.00;;;9.00;;
22774;SDS011;11554;51.106;3.684;2022-08-19T09:10:07;14.00;;;9.00;;
22774;SDS011;11554;51.106;3.684;2022-08-19T09:15:03;12.30;;;8.10;;
22774;SDS011;11554;51.106;3.684;2022-08-19T09:20:03;12.30;;;8.10;;
22774;SDS011;11554;51.106;3.684;2022-08-19T09:25:00;7.90;;;4.70;;
22774;SDS011;11554;51.106;3.684;2022-08-19T09:30:00;7.90;;;4.70;;
22774;SDS011;11554;51.106;3.684;2022-08-19T09:35:00;6.30;;;4.00;;
22774;SDS011;11554;51.106;3.684;2022-08-19T09:40:00;6.30;;;4.00;;
22774;SDS011;11554;51.106;3.684;2022-08-19T09:45:00;6.40;;;3.50;;
22774;SDS011;11554;51.106;3.684;2022-08-19T09:50:00;6.40;;;3.50;;
22774;SDS011;11554;51.106;3.684;2022-08-19T09:55:00;6.60;;;4.60;;
22774;SDS011;11554;51.106;3.684;2022-08-19T10:00:00;6.60;;;4.60;;
22774;SDS011;11554;51.106;3.684;2022-08-19T10:05:00;5.90;;;3.20;;
22774;SDS011;11554;51.106;3.684;2022-08-19T10:10:00;5.90;;;3.20;;
22774;SDS011;11554;51.106;3.684;2022-08-19T10:15:00;3.80;;;2.40;;
22774;SDS011;11554;51.106;3.684;2022-08-19T10:20:00;3.80;;;2.40;;
22774;SDS011;11554;51.106;3.684;2022-08-19T10:25:00;5.60;;;2.30;;
22774;SDS011;11554;51.106;3.684;2022-08-19T10:30:00;5.60;;;2.30;;
22774;SDS011;11554;51.106;3.684;2022-08-19T10:35:00;4.40;;;2.40;;
22774;SDS011;11554;51.106;3.684;2022-08-19T10:40:00;4.40;;;2.40;;
22774;SDS011;11554;51.106;3.684;2022-08-19T10:45:00;4.80;;;1.60;;
22774;SDS011;11554;51.106;3.684;2022-08-19T10:50:00;4.80;;;1.60;;
22774;SDS011;11554;51.106;3.684;2022-08-19T10:55:00;4.10;;;1.80;;
22774;SDS011;11554;51.106;3.684;2022-08-19T11:00:00;4.10;;;1.80;;
22774;SDS011;11554;51.106;3.684;2022-08-19T11:05:00;4.60;;;2.10;;
22774;SDS011;11554;51.106;3.684;2022-08-19T11:10:00;4.60;;;2.10;;
22774;SDS011;11554;51.106;3.684;2022-08-19T11:15:00;3.70;;;1.70;;
22774;SDS011;11554;51.106;3.684;2022-08-19T11:20:00;3.70;;;1.70;;
22774;SDS011;11554;51.106;3.684;2022-08-19T11:25:00;5.10;;;2.10;;
22774;SDS011;11554;51.106;3.684;2022-08-19T11:30:00;5.10;;;2.10;;
22774;SDS011;11554;51.106;3.684;2022-08-19T11:35:00;4.10;;;1.70;;
22774;SDS011;11554;51.106;3.684;2022-08-19T11:40:00;4.10;;;1.70;;
22774;SDS011;11554;51.106;3.684;2022-08-19T11:45:00;4.50;;;2.10;;
22774;SDS011;11554;51.106;3.684;2022-08-19T11:50:00;4.50;;;2.10;;
22774;SDS011;11554;51.106;3.684;2022-08-19T11:55:00;3.90;;;1.70;;
22774;SDS011;11554;51.106;3.684;2022-08-19T12:00:00;3.90;;;1.70;;
22774;SDS011;11554;51.106;3.684;2022-08-19T12:05:00;5.30;;;3.20;;
22774;SDS011;11554;51.106;3.684;2022-08-19T12:10:00;5.30;;;3.20;;
22774;SDS011;11554;51.106;3.684;2022-08-19T12:15:00;5.40;;;3.20;;
22774;SDS011;11554;51.106;3.684;2022-08-19T12:20:00;5.40;;;3.20;;
22774;SDS011;11554;51.106;3.684;2022-08-19T12:25:00;6.40;;;2.40;;
22774;SDS011;11554;51.106;3.684;2022-08-19T12:30:00;6.40;;;2.40;;
22774;SDS011;11554;51.106;3.684;2022-08-19T12:35:00;4.80;;;2.00;;
22774;SDS011;11554;51.106;3.684;2022-08-19T12:40:00;4.80;;;2.00;;
22774;SDS011;11554;51.106;3.684;2022-08-19T12:45:00;5.40;;;2.90;;
22774;SDS011;11554;51.106;3.684;2022-08-19T12:50:00;5.40;;;2.90;;
22774;SDS011;11554;51.106;3.684;2022-08-19T12:55:00;4.70;;;1.90;;
22774;SDS011;11554;51.106;3.684;2022-08-19T13:00:03;4.70;;;1.90;;
22774;SDS011;11554;51.106;3.684;2022-08-19T13:05:00;4.70;;;2.10;;
22774;SDS011;11554;51.106;3.684;2022-08-19T13:10:01;4.70;;;2.10;;
22774;SDS011;11554;51.106;3.684;2022-08-19T13:15:00;2.90;;;1.80;;
22774;SDS011;11554;51.106;3.684;2022-08-19T13:20:00;2.90;;;1.80;;
22774;SDS011;11554;51.106;3.684;2022-08-19T13:25:00;5.00;;;1.60;;
22774;SDS011;11554;51.106;3.684;2022-08-19T13:30:00;5.00;;;1.60;;
22774;SDS011;11554;51.106;3.684;2022-08-19T13:35:00;4.90;;;2.00;;
22774;SDS011;11554;51.106;3.684;2022-08-19T13:40:00;4.90;;;2.00;;
22774;SDS011;11554;51.106;3.684;2022-08-19T13:45:00;4.40;;;1.90;;
22774;SDS011;11554;51.106;3.684;2022-08-19T13:50:00;4.40;;;1.90;;
22774;SDS011;11554;51.106;3.684;2022-08-19T13:55:00;3.40;;;1.90;;
22774;SDS011;11554;51.106;3.684;2022-08-19T14:00:00;3.40;;;1.90;;
22774;SDS011;11554;51.106;3.684;2022-08-19T14:05:00;5.90;;;3.20;;
22774;SDS011;11554;51.106;3.684;2022-08-19T14:10:00;5.90;;;3.20;;
22774;SDS011;11554;51.106;3.684;2022-08-19T14:15:00;5.00;;;3.30;;
22774;SDS011;11554;51.106;3.684;2022-08-19T14:20:01;5.00;;;3.30;;
22774;SDS011;11554;51.106;3.684;2022-08-19T14:25:00;5.40;;;4.60;;
22774;SDS011;11554;51.106;3.684;2022-08-19T14:30:00;5.40;;;4.60;;
22774;SDS011;11554;51.106;3.684;2022-08-19T14:35:00;8.10;;;4.80;;
22774;SDS011;11554;51.106;3.684;2022-08-19T14:40:00;8.10;;;4.80;;
22774;SDS011;11554;51.106;3.684;2022-08-19T14:45:00;7.60;;;4.80;;
22774;SDS011;11554;51.106;3.684;2022-08-19T14:50:00;7.60;;;4.80;;
22774;SDS011;11554;51.106;3.684;2022-08-19T14:55:00;6.50;;;3.80;;
22774;SDS011;11554;51.106;3.684;2022-08-19T15:00:00;6.50;;;3.80;;
22774;SDS011;11554;51.106;3.684;2022-08-19T15:05:00;6.30;;;3.50;;
22774;SDS011;11554;51.106;3.684;2022-08-19T15:10:00;6.30;;;3.50;;
22774;SDS011;11554;51.106;3.684;2022-08-19T15:15:00;5.50;;;3.50;;
22774;SDS011;11554;51.106;3.684;2022-08-19T15:20:00;5.50;;;3.50;;
22774;SDS011;11554;51.106;3.684;2022-08-19T15:25:00;6.60;;;3.30;;
22774;SDS011;11554;51.106;3.684;2022-08-19T15:30:00;6.60;;;3.30;;
22774;SDS011;11554;51.106;3.684;2022-08-19T15:35:00;6.70;;;3.30;;
22774;SDS011;11554;51.106;3.684;2022-08-19T15:40:00;6.70;;;3.30;;
22774;SDS011;11554;51.106;3.684;2022-08-19T15:45:00;6.80;;;3.20;;
22774;SDS011;11554;51.106;3.684;2022-08-19T15:50:00;6.80;;;3.20;;
22774;SDS011;11554;51.106;3.684;2022-08-19T15:55:00;6.80;;;3.60;;
22774;SDS011;11554;51.106;3.684;2022-08-19T16:00:00;6.80;;;3.60;;
22774;SDS011;11554;51.106;3.684;2022-08-19T16:05:00;6.60;;;3.30;;
22774;SDS011;11554;51.106;3.684;2022-08-19T16:10:00;6.60;;;3.30;;
22774;SDS011;11554;51.106;3.684;2022-08-19T16:15:00;5.70;;;3.00;;
22774;SDS011;11554;51.106;3.684;2022-08-19T16:20:00;5.70;;;3.00;;
22774;SDS011;11554;51.106;3.684;2022-08-19T16:25:00;9.00;;;3.60;;
22774;SDS011;11554;51.106;3.684;2022-08-19T16:30:00;9.00;;;3.60;;
22774;SDS011;11554;51.106;3.684;2022-08-19T16:35:03;6.80;;;3.50;;
22774;SDS011;11554;51.106;3.684;2022-08-19T16:40:00;6.80;;;3.50;;
22774;SDS011;11554;51.106;3.684;2022-08-19T16:45:00;6.50;;;3.20;;
22774;SDS011;11554;51.106;3.684;2022-08-19T16:50:00;6.50;;;3.20;;
22774;SDS011;11554;51.106;3.684;2022-08-19T16:55:00;7.20;;;3.40;;
22774;SDS011;11554;51.106;3.684;2022-08-19T17:00:00;7.20;;;3.40;;
22774;SDS011;11554;51.106;3.684;2022-08-19T17:05:00;8.00;;;3.30;;
22774;SDS011;11554;51.106;3.684;2022-08-19T17:10:01;8.00;;;3.30;;
22774;SDS011;11554;51.106;3.684;2022-08-19T17:15:00;7.70;;;3.70;;
22774;SDS011;11554;51.106;3.684;2022-08-19T17:20:00;7.70;;;3.70;;
22774;SDS011;11554;51.106;3.684;2022-08-19T17:25:00;7.90;;;3.40;;
22774;SDS011;11554;51.106;3.684;2022-08-19T17:30:02;7.90;;;3.40;;
22774;SDS011;11554;51.106;3.684;2022-08-19T17:35:01;8.30;;;3.00;;
22774;SDS011;11554;51.106;3.684;2022-08-19T17:40:01;8.30;;;3.00;;
22774;SDS011;11554;51.106;3.684;2022-08-19T17:45:00;8.70;;;3.00;;
22774;SDS011;11554;51.106;3.684;2022-08-19T17:50:00;8.70;;;3.00;;
22774;SDS011;11554;51.106;3.684;2022-08-19T17:55:00;4.80;;;2.30;;
22774;SDS011;11554;51.106;3.684;2022-08-19T18:00:01;4.80;;;2.30;;
22774;SDS011;11554;51.106;3.684;2022-08-19T18:05:02;5.50;;;2.10;;
22774;SDS011;11554;51.106;3.684;2022-08-19T18:10:00;5.50;;;2.10;;
22774;SDS011;11554;51.106;3.684;2022-08-19T18:15:00;5.50;;;2.20;;
22774;SDS011;11554;51.106;3.684;2022-08-19T18:20:00;5.50;;;2.20;;
22774;SDS011;11554;51.106;3.684;2022-08-19T18:25:01;6.70;;;2.40;;
22774;SDS011;11554;51.106;3.684;2022-08-19T18:30:00;6.70;;;2.40;;
22774;SDS011;11554;51.106;3.684;2022-08-19T18:35:04;6.60;;;2.60;;
22774;SDS011;11554;51.106;3.684;2022-08-19T18:40:00;6.60;;;2.60;;
22774;SDS011;11554;51.106;3.684;2022-08-19T18:45:00;7.00;;;2.80;;
22774;SDS011;11554;51.106;3.684;2022-08-19T18:50:00;7.00;;;2.80;;
22774;SDS011;11554;51.106;3.684;2022-08-19T18:55:00;6.30;;;2.80;;
22774;SDS011;11554;51.106;3.684;2022-08-19T19:00:02;6.30;;;2.80;;
22774;SDS011;11554;51.106;3.684;2022-08-19T19:05:00;5.20;;;2.40;;
22774;SDS011;11554;51.106;3.684;2022-08-19T19:10:01;5.20;;;2.40;;
22774;SDS011;11554;51.106;3.684;2022-08-19T19:15:00;2.90;;;1.60;;
22774;SDS011;11554;51.106;3.684;2022-08-19T19:20:00;2.90;;;1.60;;
22774;SDS011;11554;51.106;3.684;2022-08-19T19:25:00;4.20;;;1.80;;
22774;SDS011;11554;51.106;3.684;2022-08-19T19:30:00;4.20;;;1.80;;
22774;SDS011;11554;51.106;3.684;2022-08-19T19:35:00;3.30;;;1.60;;
22774;SDS011;11554;51.106;3.684;2022-08-19T19:40:00;3.30;;;1.60;;
22774;SDS011;11554;51.106;3.684;2022-08-19T19:45:00;2.60;;;1.40;;
22774;SDS011;11554;51.106;3.684;2022-08-19T19:50:00;2.60;;;1.40;;
22774;SDS011;11554;51.106;3.684;2022-08-19T19:55:00;2.90;;;1.30;;
22774;SDS011;11554;51.106;3.684;2022-08-19T20:00:00;2.90;;;1.30;;
22774;SDS011;11554;51.106;3.684;2022-08-19T20:05:00;3.20;;;1.40;;
22774;SDS011;11554;51.106;3.684;2022-08-19T20:10:00;3.20;;;1.40;;
22774;SDS011;11554;51.106;3.684;2022-08-19T20:15:00;3.60;;;1.20;;
22774;SDS011;11554;51.106;3.684;2022-08-19T20:20:00;3.60;;;1.20;;
22774;SDS011;11554;51.106;3.684;2022-08-19T20:25:00;2.70;;;1.40;;
22774;SDS011;11554;51.106;3.684;2022-08-19T20:30:00;2.70;;;1.40;;
22774;SDS011;11554;51.106;3.684;2022-08-19T20:35:00;2.10;;;1.10;;
22774;SDS011;11554;51.106;3.684;2022-08-19T20:40:00;2.10;;;1.10;;
22774;SDS011;11554;51.106;3.684;2022-08-19T20:45:00;4.00;;;1.50;;
22774;SDS011;11554;51.106;3.684;2022-08-19T20:50:00;4.00;;;1.50;;
22774;SDS011;11554;51.106;3.684;2022-08-19T20:55:00;2.40;;;1.80;;
22774;SDS011;11554;51.106;3.684;2022-08-19T21:00:00;2.40;;;1.80;;
22774;SDS011;11554;51.106;3.684;2022-08-19T21:05:00;4.10;;;1.90;;
22774;SDS011;11554;51.106;3.684;2022-08-19T21:10:00;4.10;;;1.90;;
22774;SDS011;11554;51.106;3.684;2022-08-19T21:15:00;3.70;;;2.30;;
22774;SDS011;11554;51.106;3.684;2022-08-19T21:20:00;3.70;;;2.30;;
22774;SDS011;11554;51.106;3.684;2022-08-19T21:25:01;5.00;;;2.70;;
22774;SDS011;11554;51.106;3.684;2022-08-19T21:30:00;5.00;;;2.70;;
22774;SDS011;11554;51.106;3.684;2022-08-19T21:35:00;6.30;;;3.60;;
22774;SDS011;11554;51.106;3.684;2022-08-19T21:40:00;6.30;;;3.60;;
22774;SDS011;11554;51.106;3.684;2022-08-19T21:45:00;7.00;;;3.50;;
22774;SDS011;11554;51.106;3.684;2022-08-19T21:50:00;7.00;;;3.50;;
22774;SDS011;11554;51.106;3.684;2022-08-19T21:55:00;9.00;;;4.50;;
22774;SDS011;11554;51.106;3.684;2022-08-19T22:00:00;9.00;;;4.50;;
22774;SDS011;11554;51.106;3.684;2022-08-19T22:05:00;6.70;;;3.50;;
22774;SDS011;11554;51.106;3.684;2022-08-19T22:10:00;6.70;;;3.50;;
22774;SDS011;11554;51.106;3.684;2022-08-19T22:15:00;7.80;;;3.90;;
22774;SDS011;11554;51.106;3.684;2022-08-19T22:20:01;7.80;;;3.90;;
22774;SDS011;11554;51.106;3.684;2022-08-19T22:25:05;8.50;;;3.40;;
22774;SDS011;11554;51.106;3.684;2022-08-19T22:30:00;8.50;;;3.40;;
22774;SDS011;11554;51.106;3.684;2022-08-19T22:35:00;7.30;;;3.40;;
22774;SDS011;11554;51.106;3.684;2022-08-19T22:40:00;7.30;;;3.40;;
22774;SDS011;11554;51.106;3.684;2022-08-19T22:45:00;7.60;;;3.50;;
22774;SDS011;11554;51.106;3.684;2022-08-19T22:50:00;7.60;;;3.50;;
22774;SDS011;11554;51.106;3.684;2022-08-19T22:55:03;10.40;;;3.50;;
22774;SDS011;11554;51.106;3.684;2022-08-19T23:00:01;10.40;;;3.50;;
22774;SDS011;11554;51.106;3.684;2022-08-19T23:05:00;15.50;;;3.70;;
22774;SDS011;11554;51.106;3.684;2022-08-19T23:10:00;15.50;;;3.70;;
22774;SDS011;11554;51.106;3.684;2022-08-19T23:15:02;14.10;;;3.60;;
22774;SDS011;11554;51.106;3.684;2022-08-19T23:20:00;14.10;;;3.60;;
22774;SDS011;11554;51.106;3.684;2022-08-19T23:25:00;15.10;;;3.30;;
22774;SDS011;11554;51.106;3.684;2022-08-19T23:30:00;15.10;;;3.30;;
22774;SDS011;11554;51.106;3.684;2022-08-19T23:35:00;15.80;;;3.90;;
22774;SDS011;11554;51.106;3.684;2022-08-19T23:40:00;15.80;;;3.90;;
22774;SDS011;11554;51.106;3.684;2022-08-19T23:45:01;12.40;;;3.20;;
22774;SDS011;11554;51.106;3.684;2022-08-19T23:50:00;12.40;;;3.20;;
22774;SDS011;11554;51.106;3.684;2022-08-19T23:55:00;12.60;;;3.50;;
